Time;durP1;ratioP1;P1;durP2;ratioP2;P2;SDS_P1;SDS_P2;PMS_P1;PMS_P2;Temp;Humidity;BMP_temperature;BMP_pressure;BME280_temperature;BME280_humidity;BME280_pressure;Samples;Min_cycle;Max_cycle;Signal;HPM_P1;HPM_P2
2022/04/20 00:01:43;;;;;;;14.45;6.60;;;11.10;99.90;;;;;;5050827;28;20071;-63
2022/04/20 00:04:12;;;;;;;17.55;6.50;;;11.10;99.90;;;;;;5036466;28;20029;-65
2022/04/20 00:06:37;;;;;;;12.55;6.35;;;11.10;99.90;;;;;;5042834;28;20060;-66
2022/04/20 00:09:04;;;;;;;16.63;6.88;;;11.10;99.90;;;;;;5049620;28;20071;-64
2022/04/20 00:11:30;;;;;;;16.70;6.70;;;11.00;99.90;;;;;;5045848;28;20064;-64
2022/04/20 00:13:55;;;;;;;15.50;6.38;;;11.00;99.90;;;;;;5042731;28;20491;-63
2022/04/20 00:16:21;;;;;;;20.05;7.28;;;11.00;99.90;;;;;;5046117;28;20052;-63
2022/04/20 00:18:47;;;;;;;12.88;6.65;;;11.00;99.90;;;;;;5051205;28;20037;-63
2022/04/20 00:21:12;;;;;;;15.75;6.90;;;11.00;99.90;;;;;;5040791;28;20074;-62
2022/04/20 00:23:38;;;;;;;14.85;6.32;;;11.00;99.90;;;;;;5050941;28;20052;-65
2022/04/20 00:26:03;;;;;;;16.40;6.97;;;11.00;99.90;;;;;;5041503;28;20041;-65
2022/04/20 00:28:29;;;;;;;18.05;7.18;;;11.00;99.90;;;;;;5032833;28;20053;-65
2022/04/20 00:30:54;;;;;;;15.00;6.30;;;10.90;99.90;;;;;;5044115;28;20514;-66
2022/04/20 00:33:20;;;;;;;15.93;6.70;;;10.90;99.90;;;;;;5054928;28;20123;-63
2022/04/20 00:35:46;;;;;;;15.02;5.95;;;10.90;99.90;;;;;;5047057;28;20089;-63
2022/04/20 00:38:11;;;;;;;15.30;5.85;;;10.90;99.90;;;;;;5059778;28;20170;-67
2022/04/20 00:40:37;;;;;;;14.85;6.85;;;10.90;99.90;;;;;;5052440;28;20115;-67
2022/04/20 00:43:03;;;;;;;18.20;6.43;;;10.80;99.90;;;;;;5050334;28;20024;-66
2022/04/20 00:45:30;;;;;;;15.25;6.32;;;10.80;99.90;;;;;;5052404;28;20414;-64
2022/04/20 00:47:58;;;;;;;18.52;6.60;;;10.80;99.90;;;;;;5044877;28;20025;-62
2022/04/20 00:50:24;;;;;;;13.50;5.97;;;10.80;99.90;;;;;;5042936;28;20075;-65
2022/04/20 00:52:50;;;;;;;15.05;6.65;;;10.80;99.90;;;;;;5033886;28;20029;-65
2022/04/20 00:55:16;;;;;;;13.25;6.30;;;10.80;99.90;;;;;;5047399;28;20035;-62
2022/04/20 00:57:41;;;;;;;14.13;5.72;;;10.80;99.90;;;;;;5035176;28;20047;-64
2022/04/20 01:00:08;;;;;;;15.60;5.85;;;10.70;99.90;;;;;;5049040;28;20025;-64
2022/04/20 01:02:33;;;;;;;14.68;5.53;;;10.70;99.90;;;;;;5049143;28;20029;-64
2022/04/20 01:04:59;;;;;;;13.45;6.35;;;10.70;99.90;;;;;;5049477;28;20373;-61
2022/04/20 01:07:24;;;;;;;11.35;5.38;;;10.70;99.90;;;;;;5044654;28;20350;-66
2022/04/20 01:09:50;;;;;;;14.00;6.03;;;10.60;99.90;;;;;;5045658;28;20108;-63
2022/04/20 01:12:17;;;;;;;13.95;6.35;;;10.60;99.90;;;;;;5043177;28;20099;-66
2022/04/20 01:14:43;;;;;;;17.95;6.28;;;10.60;99.90;;;;;;5036301;28;20033;-64
2022/04/20 01:17:09;;;;;;;12.05;5.65;;;10.60;99.90;;;;;;5043403;28;20039;-66
2022/04/20 01:19:35;;;;;;;12.07;5.60;;;10.60;99.90;;;;;;5047067;28;20041;-62
2022/04/20 01:22:02;;;;;;;10.90;5.90;;;10.50;99.90;;;;;;5048512;28;20032;-64
2022/04/20 01:24:28;;;;;;;12.10;5.50;;;10.50;99.90;;;;;;5047683;28;20025;-66
2022/04/20 01:26:53;;;;;;;15.00;5.75;;;10.50;99.90;;;;;;5045793;28;20049;-64
2022/04/20 01:29:20;;;;;;;14.32;5.60;;;10.50;99.90;;;;;;5063783;28;20487;-63
2022/04/20 01:31:45;;;;;;;14.57;5.55;;;10.50;99.90;;;;;;5044846;28;20029;-65
2022/04/20 01:34:11;;;;;;;12.75;5.60;;;10.40;99.90;;;;;;5049989;28;20480;-67
2022/04/20 01:36:37;;;;;;;14.48;5.38;;;10.40;99.90;;;;;;5048741;28;20156;-63
2022/04/20 01:39:03;;;;;;;12.07;5.20;;;10.40;99.90;;;;;;5053780;28;20021;-65
2022/04/20 01:41:28;;;;;;;12.38;5.00;;;10.40;99.90;;;;;;5054939;28;20167;-66
2022/04/20 01:43:54;;;;;;;13.20;6.00;;;10.40;99.90;;;;;;5058457;28;20072;-66
2022/04/20 01:46:19;;;;;;;11.27;5.25;;;10.40;99.90;;;;;;5038738;28;20150;-65
2022/04/20 01:48:45;;;;;;;11.45;5.50;;;10.30;99.90;;;;;;5055647;28;20066;-64
2022/04/20 01:53:54;;;;;;;10.98;5.47;;;10.30;99.90;;;;;;5055201;28;20047;-66
2022/04/20 01:56:20;;;;;;;13.00;5.13;;;10.20;99.90;;;;;;5050187;28;20064;-64
2022/04/20 01:58:45;;;;;;;13.48;5.50;;;10.20;99.90;;;;;;5057911;28;20033;-66
2022/04/20 02:03:55;;;;;;;14.32;5.63;;;10.20;99.90;;;;;;5049805;28;20089;-62
2022/04/20 02:06:21;;;;;;;14.27;5.60;;;10.20;99.90;;;;;;5053360;28;20037;-64
2022/04/20 02:08:47;;;;;;;13.10;5.20;;;10.10;99.90;;;;;;5054735;28;20024;-65
2022/04/20 02:11:13;;;;;;;15.05;5.60;;;10.10;99.90;;;;;;5047573;28;20022;-64
2022/04/20 02:13:39;;;;;;;10.73;5.32;;;10.10;99.90;;;;;;5048721;28;20036;-62
2022/04/20 02:16:05;;;;;;;14.73;5.47;;;10.10;99.90;;;;;;5053211;28;20029;-62
2022/04/20 02:18:31;;;;;;;11.77;5.47;;;10.00;99.90;;;;;;5052066;28;20291;-63
2022/04/20 02:20:56;;;;;;;11.68;5.50;;;10.00;99.90;;;;;;5052848;28;20033;-63
2022/04/20 02:23:22;;;;;;;13.63;5.55;;;10.00;99.90;;;;;;5051044;28;20021;-63
2022/04/20 02:25:48;;;;;;;12.25;5.57;;;10.00;99.90;;;;;;5049676;28;20112;-63
2022/04/20 02:28:13;;;;;;;15.45;5.63;;;9.90;99.90;;;;;;5051686;28;20088;-63
2022/04/20 02:30:39;;;;;;;12.85;5.47;;;9.90;99.90;;;;;;5048047;28;20044;-63
2022/04/20 02:33:05;;;;;;;11.00;5.28;;;9.90;99.90;;;;;;5048073;28;20028;-63
2022/04/20 02:35:31;;;;;;;11.75;5.32;;;9.80;99.90;;;;;;5052927;28;20064;-64
2022/04/20 02:37:59;;;;;;;15.77;5.90;;;9.90;99.90;;;;;;5054344;28;20064;-63
2022/04/20 02:40:24;;;;;;;12.05;5.93;;;9.80;99.90;;;;;;5052686;28;20025;-63
2022/04/20 02:42:50;;;;;;;12.52;5.15;;;9.80;99.90;;;;;;5048067;28;20028;-63
2022/04/20 02:45:16;;;;;;;12.98;5.22;;;9.80;99.90;;;;;;5041941;28;20024;-63
2022/04/20 02:47:43;;;;;;;10.18;5.63;;;9.80;99.90;;;;;;5052164;28;20024;-63
2022/04/20 02:50:08;;;;;;;9.95;4.65;;;9.80;99.90;;;;;;5053433;28;20120;-62
2022/04/20 02:52:34;;;;;;;13.77;5.35;;;9.70;99.90;;;;;;5052008;28;20520;-63
2022/04/20 02:54:59;;;;;;;9.88;5.10;;;9.70;99.90;;;;;;5052715;28;20029;-64
2022/04/20 02:57:26;;;;;;;14.23;4.95;;;9.70;99.90;;;;;;5052413;28;20123;-63
2022/04/20 02:59:52;;;;;;;10.75;5.80;;;9.60;99.90;;;;;;5050797;28;20094;-62
2022/04/20 03:02:18;;;;;;;12.25;5.18;;;9.60;99.90;;;;;;5049504;28;20029;-62
2022/04/20 03:04:43;;;;;;;11.95;5.47;;;9.60;99.90;;;;;;5052024;28;20044;-63
2022/04/20 03:07:09;;;;;;;12.55;5.60;;;9.60;99.90;;;;;;5052830;28;20478;-63
2022/04/20 03:09:35;;;;;;;11.90;5.32;;;9.50;99.90;;;;;;5052633;28;20530;-62
2022/04/20 03:12:00;;;;;;;12.20;6.05;;;9.50;99.90;;;;;;5052512;28;20016;-62
2022/04/20 03:14:26;;;;;;;12.15;4.80;;;9.50;99.90;;;;;;5050181;28;20032;-62
2022/04/20 03:16:51;;;;;;;14.18;6.07;;;9.50;99.90;;;;;;5050901;28;20411;-63
2022/04/20 03:19:17;;;;;;;10.60;4.60;;;9.50;99.90;;;;;;5051350;28;20136;-63
2022/04/20 03:21:43;;;;;;;13.52;4.97;;;9.40;99.90;;;;;;5052834;28;20444;-62
2022/04/20 03:24:09;;;;;;;12.60;4.57;;;9.40;99.90;;;;;;5051090;28;20017;-62
2022/04/20 03:26:34;;;;;;;10.95;5.15;;;9.40;99.90;;;;;;5043409;28;20413;-64
2022/04/20 03:29:00;;;;;;;9.98;4.70;;;9.40;99.90;;;;;;5050777;28;20420;-63
2022/04/20 03:31:26;;;;;;;13.18;5.07;;;9.40;99.90;;;;;;5049573;28;20029;-62
2022/04/20 03:33:51;;;;;;;16.23;5.30;;;9.40;99.90;;;;;;5050315;28;20540;-62
2022/04/20 03:36:17;;;;;;;19.05;6.25;;;9.30;99.90;;;;;;5045116;28;20021;-62
2022/04/20 03:38:42;;;;;;;15.75;5.22;;;9.30;99.90;;;;;;5047039;28;20061;-63
2022/04/20 03:41:08;;;;;;;12.65;5.30;;;9.30;99.90;;;;;;5032827;28;20025;-63
2022/04/20 03:43:34;;;;;;;14.48;5.60;;;9.30;99.90;;;;;;5045513;28;20123;-62
2022/04/20 03:45:59;;;;;;;13.90;5.65;;;9.20;99.90;;;;;;5048337;28;20036;-63
2022/04/20 03:48:26;;;;;;;12.45;5.68;;;9.20;99.90;;;;;;5045600;28;20032;-63
2022/04/20 03:50:51;;;;;;;14.00;5.60;;;9.20;99.90;;;;;;5050692;28;20021;-63
2022/04/20 03:53:18;;;;;;;11.48;4.85;;;9.20;99.90;;;;;;5050807;28;20028;-63
2022/04/20 03:55:44;;;;;;;11.50;4.80;;;9.20;99.90;;;;;;5042580;28;20104;-63
2022/04/20 03:58:10;;;;;;;10.40;4.88;;;9.20;99.90;;;;;;5050858;28;20163;-63
2022/04/20 04:00:36;;;;;;;11.05;5.05;;;9.20;99.90;;;;;;5041697;28;20068;-63
2022/04/20 04:03:01;;;;;;;9.98;4.50;;;9.20;99.90;;;;;;5049803;28;20021;-67
2022/04/20 04:05:27;;;;;;;10.85;4.28;;;9.10;99.90;;;;;;5052225;28;20075;-64
2022/04/20 04:07:52;;;;;;;12.82;4.63;;;9.10;99.90;;;;;;5048519;28;20028;-64
2022/04/20 04:10:18;;;;;;;13.63;5.32;;;9.10;99.90;;;;;;5049873;28;20042;-63
2022/04/20 04:12:44;;;;;;;11.13;4.80;;;9.10;99.90;;;;;;5051113;28;20423;-67
2022/04/20 04:15:11;;;;;;;14.75;5.38;;;9.10;99.90;;;;;;5049806;28;20041;-64
2022/04/20 04:17:36;;;;;;;10.57;4.60;;;9.00;99.90;;;;;;5051798;28;20039;-64
2022/04/20 04:20:04;;;;;;;11.48;4.65;;;9.00;99.90;;;;;;5050464;28;20021;-63
2022/04/20 04:22:29;;;;;;;9.82;4.70;;;9.00;99.90;;;;;;5050981;28;20024;-63
2022/04/20 04:24:56;;;;;;;10.35;4.68;;;9.00;99.90;;;;;;5051664;28;20338;-64
2022/04/20 04:27:23;;;;;;;9.25;4.22;;;9.00;99.90;;;;;;5048762;28;20045;-64
2022/04/20 04:29:49;;;;;;;13.88;4.90;;;9.00;99.90;;;;;;5050540;28;20025;-66
2022/04/20 04:32:14;;;;;;;10.35;4.57;;;9.00;99.90;;;;;;5046570;28;20048;-62
2022/04/20 04:34:40;;;;;;;11.20;4.93;;;8.90;99.90;;;;;;5049804;28;20071;-65
2022/04/20 04:37:08;;;;;;;11.88;4.72;;;8.90;99.90;;;;;;5050345;28;20127;-63
2022/04/20 04:39:34;;;;;;;10.60;4.68;;;8.90;99.90;;;;;;5049357;28;20044;-63
2022/04/20 04:42:00;;;;;;;10.07;4.40;;;8.90;99.90;;;;;;5048674;28;20029;-64
2022/04/20 04:44:26;;;;;;;10.40;4.50;;;8.90;99.90;;;;;;5051293;28;20475;-63
2022/04/20 04:49:36;;;;;;;11.98;4.40;;;8.90;99.90;;;;;;5050095;28;20047;-62
2022/04/20 04:52:04;;;;;;;13.02;4.95;;;8.80;99.90;;;;;;5049961;28;20361;-66
2022/04/20 04:54:30;;;;;;;9.35;4.57;;;8.80;99.90;;;;;;5040918;28;20029;-63
2022/04/20 04:56:56;;;;;;;10.43;4.75;;;8.90;99.90;;;;;;5035912;28;20035;-64
2022/04/20 04:59:21;;;;;;;10.77;4.53;;;8.90;99.90;;;;;;5050585;28;20510;-64
2022/04/20 05:01:47;;;;;;;10.45;4.22;;;8.90;99.90;;;;;;5051143;28;20017;-62
2022/04/20 05:04:13;;;;;;;10.95;4.90;;;8.90;99.90;;;;;;5047890;28;20457;-63
2022/04/20 05:06:38;;;;;;;12.23;4.68;;;8.90;99.90;;;;;;5044130;28;20059;-66
2022/04/20 05:09:04;;;;;;;11.75;4.22;;;8.90;99.90;;;;;;5049216;28;20029;-65
2022/04/20 05:11:30;;;;;;;14.07;4.97;;;8.90;99.90;;;;;;5051316;28;20037;-65
2022/04/20 05:13:56;;;;;;;10.82;4.15;;;9.00;99.90;;;;;;5053501;28;20036;-63
2022/04/20 05:16:22;;;;;;;10.05;4.18;;;9.00;99.90;;;;;;5047335;28;20026;-64
2022/04/20 05:18:47;;;;;;;10.68;4.47;;;9.00;99.90;;;;;;5051735;28;20025;-62
2022/04/20 05:21:13;;;;;;;11.52;4.70;;;9.10;99.90;;;;;;5055876;28;20024;-62
2022/04/20 05:23:39;;;;;;;11.63;4.70;;;9.20;99.90;;;;;;5052914;28;20100;-63
2022/04/20 05:26:04;;;;;;;9.80;4.32;;;9.20;99.90;;;;;;5054322;28;20025;-63
2022/04/20 05:28:30;;;;;;;8.13;3.95;;;9.20;99.90;;;;;;5047511;28;20114;-67
2022/04/20 05:30:55;;;;;;;12.85;4.15;;;9.20;99.90;;;;;;5054570;28;20025;-62
2022/04/20 05:33:21;;;;;;;11.00;4.45;;;9.30;99.90;;;;;;5050592;28;20040;-63
2022/04/20 05:35:47;;;;;;;6.80;4.47;;;9.40;99.90;;;;;;5055478;28;20025;-65
2022/04/20 05:43:41;;;;;;;19.42;5.82;;;9.50;99.90;;;;;;5047659;28;20431;-63
2022/04/20 05:46:07;;;;;;;7.05;3.70;;;9.60;99.90;;;;;;5054291;28;20033;-63
2022/04/20 05:48:36;;;;;;;11.00;4.95;;;9.60;99.90;;;;;;5044695;28;20044;-64
2022/04/20 05:51:01;;;;;;;8.68;3.97;;;9.70;99.90;;;;;;5047492;28;20040;-65
2022/04/20 05:53:27;;;;;;;12.60;5.18;;;9.80;99.90;;;;;;5053104;28;20017;-63
2022/04/20 05:55:53;;;;;;;9.82;4.03;;;9.90;99.90;;;;;;5055121;28;20025;-65
2022/04/20 05:58:18;;;;;;;10.52;4.75;;;9.90;99.90;;;;;;5052286;28;20040;-62
2022/04/20 06:00:44;;;;;;;12.05;4.18;;;10.00;99.90;;;;;;5052506;28;20102;-69
2022/04/20 06:03:11;;;;;;;11.32;4.60;;;10.10;99.90;;;;;;5047768;28;20139;-64
2022/04/20 06:05:37;;;;;;;13.45;4.22;;;10.20;99.90;;;;;;5045958;28;20075;-67
2022/04/20 06:08:02;;;;;;;11.98;4.20;;;10.30;99.90;;;;;;5045431;28;20427;-63
2022/04/20 06:10:29;;;;;;;8.43;3.97;;;10.30;99.90;;;;;;5053087;28;20033;-63
2022/04/20 06:12:55;;;;;;;8.23;4.43;;;10.40;99.90;;;;;;5053288;28;20017;-66
2022/04/20 06:15:21;;;;;;;9.68;4.22;;;10.50;99.90;;;;;;5041105;28;20029;-64
2022/04/20 06:17:47;;;;;;;10.98;4.40;;;10.60;99.90;;;;;;5051248;28;20110;-67
2022/04/20 06:20:12;;;;;;;12.65;4.15;;;10.70;99.90;;;;;;5051623;28;21009;-64
2022/04/20 06:22:38;;;;;;;18.40;7.38;;;10.90;99.90;;;;;;5048043;28;20311;-65
2022/04/20 06:25:03;;;;;;;11.05;4.55;;;11.00;99.90;;;;;;5053012;28;20020;-66
2022/04/20 06:27:30;;;;;;;11.43;4.63;;;11.10;99.90;;;;;;5053938;28;20048;-63
2022/04/20 06:29:56;;;;;;;8.73;4.22;;;11.20;99.90;;;;;;5048792;28;20064;-63
2022/04/20 06:32:23;;;;;;;10.50;4.53;;;11.40;99.90;;;;;;5040201;28;20519;-66
2022/04/20 06:34:49;;;;;;;9.88;4.53;;;11.60;99.90;;;;;;5051157;28;20051;-66
2022/04/20 06:37:15;;;;;;;15.35;4.60;;;11.80;99.90;;;;;;5058193;28;20049;-67
2022/04/20 06:39:41;;;;;;;10.52;4.45;;;12.00;99.90;;;;;;5048474;28;20047;-62
2022/04/20 06:42:07;;;;;;;12.32;4.53;;;12.20;99.90;;;;;;5048318;28;20027;-66
2022/04/20 06:44:33;;;;;;;8.98;4.10;;;12.50;99.90;;;;;;5048380;28;20047;-66
2022/04/20 06:46:59;;;;;;;9.77;4.03;;;13.00;99.90;;;;;;5050970;28;20128;-67
2022/04/20 06:49:25;;;;;;;12.45;4.30;;;13.50;99.90;;;;;;5053870;28;20056;-64
2022/04/20 07:00:18;;;;;;;9.18;4.47;;;15.20;96.80;;;;;;5048135;28;20031;-64
2022/04/20 07:02:44;;;;;;;8.50;3.78;;;15.60;95.60;;;;;;5050055;28;20016;-65
2022/04/20 07:05:10;;;;;;;7.72;3.60;;;16.00;94.60;;;;;;5052188;28;20074;-63
2022/04/20 07:07:36;;;;;;;8.77;4.15;;;16.30;93.90;;;;;;5051672;28;20385;-63
2022/04/20 07:10:05;;;;;;;11.23;4.50;;;16.60;93.30;;;;;;5052981;28;20082;-63
2022/04/20 07:12:30;;;;;;;11.07;4.15;;;17.00;92.60;;;;;;5051845;28;20057;-66
2022/04/20 07:14:56;;;;;;;11.68;3.75;;;16.90;92.30;;;;;;5052497;28;20417;-65
2022/04/20 07:17:22;;;;;;;10.32;3.85;;;16.80;92.00;;;;;;5051677;28;20043;-66
2022/04/20 07:19:47;;;;;;;9.07;3.92;;;16.50;92.20;;;;;;5052428;28;20404;-66
2022/04/20 07:22:13;;;;;;;9.45;3.80;;;16.30;91.90;;;;;;5052666;28;20469;-65
2022/04/20 07:24:38;;;;;;;9.38;4.40;;;15.90;92.40;;;;;;5052937;28;20052;-62
2022/04/20 07:27:04;;;;;;;11.43;3.65;;;15.70;92.70;;;;;;5052671;28;20040;-65
2022/04/20 07:29:30;;;;;;;9.48;3.70;;;15.70;93.10;;;;;;5051625;28;20388;-64
2022/04/20 07:31:56;;;;;;;9.13;5.25;;;15.70;92.50;;;;;;5050574;28;20047;-64
2022/04/20 07:34:21;;;;;;;9.27;3.50;;;15.70;92.40;;;;;;5051477;28;20063;-63
2022/04/20 07:36:49;;;;;;;7.85;3.55;;;15.80;91.90;;;;;;5052701;28;20024;-65
2022/04/20 07:39:15;;;;;;;9.52;4.22;;;15.90;92.20;;;;;;5051714;28;20029;-63
2022/04/20 07:41:40;;;;;;;8.82;3.22;;;16.10;92.00;;;;;;5051188;28;20017;-65
2022/04/20 07:44:06;;;;;;;10.93;3.55;;;16.40;92.00;;;;;;5051282;28;20520;-65
2022/04/20 07:46:32;;;;;;;7.13;3.33;;;16.80;91.60;;;;;;5052039;28;20150;-65
2022/04/20 07:48:57;;;;;;;11.60;4.22;;;17.20;91.10;;;;;;5048545;28;20483;-66
2022/04/20 07:51:23;;;;;;;9.23;3.35;;;17.60;90.30;;;;;;5052414;28;20057;-63
2022/04/20 07:53:48;;;;;;;5.68;3.65;;;17.90;87.90;;;;;;5052168;28;20040;-65
2022/04/20 07:56:14;;;;;;;7.80;3.55;;;18.20;86.50;;;;;;5051536;28;20070;-65
2022/04/20 07:58:39;;;;;;;6.22;3.00;;;18.60;85.50;;;;;;5052306;28;20025;-67
2022/04/20 08:01:05;;;;;;;6.53;3.10;;;19.00;84.20;;;;;;5051691;28;20407;-64
2022/04/20 08:03:31;;;;;;;7.15;3.20;;;19.40;82.70;;;;;;5051001;28;20415;-64
2022/04/20 08:05:59;;;;;;;8.80;3.35;;;20.00;81.80;;;;;;5051239;28;20070;-65
2022/04/20 08:08:25;;;;;;;6.55;3.25;;;20.60;79.20;;;;;;5051695;28;20068;-66
2022/04/20 08:10:51;;;;;;;7.80;3.40;;;21.20;76.40;;;;;;5051725;28;20036;-64
2022/04/20 08:16:01;;;;;;;5.45;2.97;;;22.60;72.30;;;;;;5051467;28;20385;-65
2022/04/20 08:18:27;;;;;;;8.63;3.22;;;23.10;70.30;;;;;;5051562;28;20469;-66
2022/04/20 08:20:53;;;;;;;7.32;3.45;;;23.60;69.00;;;;;;5049933;28;20032;-61
2022/04/20 08:23:19;;;;;;;8.10;3.50;;;24.10;67.40;;;;;;5050349;28;20024;-66
2022/04/20 08:25:45;;;;;;;7.05;3.30;;;24.50;65.60;;;;;;5053361;28;20025;-65
2022/04/20 08:28:12;;;;;;;7.45;3.35;;;24.80;65.70;;;;;;5050897;28;20041;-65
2022/04/20 08:30:39;;;;;;;8.68;3.53;;;25.20;64.60;;;;;;5051219;28;20025;-65
2022/04/20 08:33:07;;;;;;;5.97;2.80;;;25.60;63.20;;;;;;5051406;28;20025;-66
2022/04/20 08:35:34;;;;;;;7.28;2.90;;;25.90;59.60;;;;;;5050850;28;20063;-67
2022/04/20 08:37:59;;;;;;;6.50;3.35;;;26.00;58.10;;;;;;5051413;28;20091;-65
2022/04/20 08:40:26;;;;;;;6.05;2.63;;;26.00;58.10;;;;;;5051337;28;20029;-63
2022/04/20 08:42:53;;;;;;;9.57;2.83;;;26.30;56.60;;;;;;5050324;28;20123;-65
2022/04/20 08:45:20;;;;;;;6.60;2.45;;;26.60;54.70;;;;;;5051801;28;20025;-65
2022/04/20 08:47:49;;;;;;;5.65;3.03;;;26.60;53.50;;;;;;5053921;28;20029;-63
2022/04/20 08:50:16;;;;;;;4.57;2.42;;;26.60;53.30;;;;;;5055482;28;20028;-66
2022/04/20 08:52:43;;;;;;;4.97;2.55;;;26.80;52.20;;;;;;5054219;28;20028;-62
2022/04/20 08:55:14;;;;;;;5.65;2.53;;;26.90;52.00;;;;;;5054491;28;20083;-66
2022/04/20 08:57:42;;;;;;;8.03;3.00;;;27.10;51.90;;;;;;5054848;28;20036;-65
2022/04/20 09:00:10;;;;;;;6.25;2.47;;;27.40;51.70;;;;;;5053564;28;20254;-65
2022/04/20 09:02:37;;;;;;;5.40;2.60;;;27.60;50.70;;;;;;5054953;28;20060;-66
2022/04/20 09:05:04;;;;;;;8.82;2.67;;;27.30;48.90;;;;;;5054507;28;20040;-65
2022/04/20 09:07:33;;;;;;;6.05;2.17;;;26.90;49.20;;;;;;5054563;28;20472;-65
2022/04/20 09:10:00;;;;;;;5.82;2.53;;;26.50;48.30;;;;;;5054859;28;20021;-64
2022/04/20 09:12:27;;;;;;;3.47;2.20;;;26.20;49.10;;;;;;5055245;28;20025;-64
2022/04/20 09:14:53;;;;;;;7.82;2.63;;;26.20;48.30;;;;;;5054547;28;20031;-64
2022/04/20 09:17:20;;;;;;;5.07;2.30;;;26.10;48.60;;;;;;5054826;28;20492;-65
2022/04/20 09:19:49;;;;;;;6.88;2.85;;;26.20;48.20;;;;;;5055095;28;20350;-65
2022/04/20 09:22:25;;;;;;;4.80;2.35;;;26.20;47.90;;;;;;5054832;28;20461;-66
2022/04/20 09:25:11;;;;;;;8.80;2.60;;;26.20;47.30;;;;;;5055488;28;20037;-62
2022/04/20 09:27:41;;;;;;;5.68;2.65;;;26.20;47.60;;;;;;5054527;28;20105;-67
2022/04/20 09:30:14;;;;;;;5.32;2.63;;;26.30;47.60;;;;;;5055042;28;20029;-64
2022/04/20 09:32:44;;;;;;;5.15;3.00;;;26.50;48.30;;;;;;5054895;28;20028;-65
2022/04/20 09:35:12;;;;;;;7.80;3.08;;;26.90;48.70;;;;;;5055294;28;20028;-64
2022/04/20 09:37:39;;;;;;;6.45;2.85;;;27.20;47.20;;;;;;5055020;28;20044;-63
2022/04/20 09:40:13;;;;;;;4.57;2.97;;;27.10;48.00;;;;;;5054109;28;20051;-63
2022/04/20 09:43:02;;;;;;;8.57;2.90;;;27.10;48.00;;;;;;5052834;28;20031;-63
2022/04/20 09:45:29;;;;;;;5.53;2.70;;;27.00;47.50;;;;;;5046748;28;20511;-66
2022/04/20 09:50:40;;;;;;;6.80;3.05;;;27.10;47.00;;;;;;5066480;28;20132;-65
2022/04/20 09:53:07;;;;;;;8.05;3.20;;;27.00;47.00;;;;;;5054445;28;20493;-65
2022/04/20 09:55:35;;;;;;;9.10;3.50;;;27.10;47.70;;;;;;5053918;28;20024;-62
2022/04/20 09:58:10;;;;;;;7.78;3.42;;;27.10;48.00;;;;;;5053551;28;20025;-63
2022/04/20 10:00:44;;;;;;;5.45;3.45;;;27.30;46.90;;;;;;5054228;28;20017;-65
2022/04/20 10:03:10;;;;;;;5.75;3.20;;;27.60;47.00;;;;;;5051884;28;20376;-64
2022/04/20 10:05:39;;;;;;;6.97;3.10;;;27.50;46.90;;;;;;5053167;28;20020;-64
2022/04/20 10:08:05;;;;;;;5.50;3.35;;;27.50;46.60;;;;;;5066349;28;20021;-63
2022/04/20 10:10:32;;;;;;;7.10;3.63;;;27.40;47.30;;;;;;5058422;28;20415;-63
2022/04/20 10:12:59;;;;;;;5.93;2.92;;;27.50;46.40;;;;;;5049800;28;20033;-64
2022/04/20 10:18:17;;;;;;;6.25;3.17;;;27.20;46.90;;;;;;5071355;28;20467;-62
2022/04/20 10:20:46;;;;;;;5.53;2.67;;;27.10;47.10;;;;;;5068420;28;20021;-66
2022/04/20 10:23:14;;;;;;;5.13;3.63;;;27.20;46.80;;;;;;5054245;28;20025;-63
2022/04/20 10:25:40;;;;;;;7.63;3.60;;;27.20;47.20;;;;;;5059829;28;20055;-63
2022/04/20 10:28:32;;;;;;;11.45;3.28;;;27.00;47.50;;;;;;5047838;28;20034;-63
2022/04/20 10:31:11;;;;;;;7.47;3.30;;;26.80;47.30;;;;;;5058631;28;20051;-63
2022/04/20 10:33:41;;;;;;;6.03;2.95;;;26.70;47.50;;;;;;5051366;28;20111;-63
2022/04/20 10:36:12;;;;;;;5.88;2.97;;;26.90;47.50;;;;;;5055958;28;20067;-64
2022/04/20 10:38:38;;;;;;;5.53;3.30;;;27.30;47.60;;;;;;5053038;28;20037;-63
2022/04/20 10:41:11;;;;;;;7.18;2.95;;;27.90;47.60;;;;;;5068949;28;20027;-64
2022/04/20 10:43:42;;;;;;;5.72;3.10;;;28.40;46.10;;;;;;5052379;28;20017;-63
2022/04/20 10:46:21;;;;;;;7.35;3.15;;;28.40;46.30;;;;;;5064085;28;20320;-64
2022/04/20 10:49:07;;;;;;;4.82;3.08;;;28.40;46.50;;;;;;5050095;28;20037;-63
2022/04/20 10:51:39;;;;;;;5.05;2.85;;;28.40;46.00;;;;;;5060471;28;20033;-64
2022/04/20 10:54:29;;;;;;;6.97;3.30;;;28.30;46.00;;;;;;5056156;28;20483;-63
2022/04/20 10:57:01;;;;;;;7.03;3.25;;;28.30;46.20;;;;;;5071806;28;20048;-62
2022/04/20 10:59:27;;;;;;;;;;;28.20;46.70;;;;;;5051347;28;20055;-63
2022/04/20 11:01:59;;;;;;;8.07;3.63;;;28.10;46.00;;;;;;5056535;28;19908;-63
2022/04/20 11:04:44;;;;;;;;;;;28.10;46.30;;;;;;5070186;28;20028;-63
2022/04/20 11:07:12;;;;;;;6.32;2.88;;;28.10;45.90;;;;;;5044940;28;19911;-62
2022/04/20 11:09:44;;;;;;;5.00;3.10;;;28.20;46.60;;;;;;5065370;28;20016;-63
2022/04/20 11:21:03;;;;;;;;;;;28.10;44.90;;;;;;5055570;28;20064;-62
2022/04/20 11:23:48;;;;;;;13.68;3.03;;;27.70;45.30;;;;;;5064894;28;19912;-67
2022/04/20 11:26:19;;;;;;;6.65;2.75;;;27.50;45.00;;;;;;5052742;28;20017;-65
2022/04/20 11:28:46;;;;;;;6.72;2.97;;;27.40;45.00;;;;;;5049423;28;20465;-67
2022/04/20 11:31:12;;;;;;;5.80;2.40;;;27.50;44.30;;;;;;5063037;28;20095;-64
2022/04/20 11:33:39;;;;;;;4.78;2.67;;;27.50;44.70;;;;;;5055437;28;20405;-64
2022/04/20 11:36:05;;;;;;;4.72;2.80;;;27.50;43.70;;;;;;5067240;28;20082;-63
2022/04/20 11:38:42;;;;;;;6.32;2.80;;;27.80;43.80;;;;;;5061660;28;20032;-63
2022/04/20 11:41:09;;;;;;;7.05;3.00;;;28.10;43.50;;;;;;5044487;28;20020;-64
2022/04/20 11:43:36;;;;;;;4.03;2.45;;;28.20;43.70;;;;;;5050289;28;20020;-64
2022/04/20 11:46:03;;;;;;;4.70;2.30;;;28.20;43.60;;;;;;5051794;28;20013;-63
2022/04/20 11:48:29;;;;;;;4.63;2.25;;;28.00;43.10;;;;;;5053921;28;20420;-63
2022/04/20 11:51:01;;;;;;;3.92;2.70;;;27.80;43.00;;;;;;5057378;28;20072;-63
2022/04/20 11:53:35;;;;;;;4.07;2.15;;;27.70;43.80;;;;;;5052444;28;20108;-63
2022/04/20 11:56:02;;;;;;;3.67;2.10;;;27.70;43.40;;;;;;5056875;28;20027;-63
2022/04/20 11:58:28;;;;;;;4.70;2.22;;;27.90;42.90;;;;;;5061591;28;20036;-63
2022/04/20 12:01:05;;;;;;;6.20;2.60;;;28.20;42.70;;;;;;5042151;28;20022;-64
2022/04/20 12:03:32;;;;;;;3.03;2.22;;;28.60;42.60;;;;;;5040468;28;20047;-64
2022/04/20 12:06:02;;;;;;;3.08;2.30;;;28.80;42.10;;;;;;5064894;28;20017;-63
2022/04/20 12:08:29;;;;;;;5.68;2.10;;;28.80;41.70;;;;;;5052311;28;20048;-63
2022/04/20 12:10:55;;;;;;;5.25;2.13;;;28.60;41.70;;;;;;5063248;28;20068;-63
2022/04/20 12:13:29;;;;;;;3.70;2.03;;;28.40;41.50;;;;;;5063312;28;20452;-63
2022/04/20 12:16:13;;;;;;;3.05;2.00;;;28.30;41.30;;;;;;5063103;28;20028;-64
2022/04/20 12:18:43;;;;;;;7.43;2.03;;;28.30;41.40;;;;;;5033692;28;20033;-63
2022/04/20 12:21:42;;;;;;;5.88;2.30;;;28.40;41.40;;;;;;5050514;28;20036;-62
2022/04/20 12:24:18;;;;;;;2.40;2.00;;;28.70;41.00;;;;;;5039620;28;20074;-64
2022/04/20 12:26:45;;;;;;;3.85;2.28;;;28.90;41.20;;;;;;5049918;28;20041;-63
2022/04/20 12:29:11;;;;;;;3.85;2.22;;;29.10;41.40;;;;;;5051913;28;20029;-63
2022/04/20 12:31:41;;;;;;;4.35;2.10;;;29.10;40.90;;;;;;5052078;28;20028;-63
2022/04/20 12:34:08;;;;;;;4.13;2.17;;;28.90;41.10;;;;;;5052435;28;20044;-63
2022/04/20 12:36:54;;;;;;;5.70;2.22;;;28.60;41.50;;;;;;5050860;28;20396;-63
2022/04/20 12:39:44;;;;;;;3.75;1.90;;;28.30;42.00;;;;;;5046261;28;22309;-65
2022/04/20 12:42:15;;;;;;;3.45;2.28;;;27.80;42.10;;;;;;5045903;28;20028;-67
2022/04/20 12:44:52;;;;;;;3.83;2.33;;;27.30;42.10;;;;;;5039321;28;20018;-62
2022/04/20 12:47:17;;;;;;;6.45;2.45;;;26.70;42.60;;;;;;5032342;28;20030;-62
2022/04/20 12:49:45;;;;;;;4.03;2.30;;;26.10;43.20;;;;;;5032279;28;20025;-63
2022/04/20 12:52:14;;;;;;;5.70;2.30;;;25.60;43.70;;;;;;5050027;28;20159;-66
2022/04/20 12:54:51;;;;;;;3.13;2.33;;;25.10;44.60;;;;;;5064858;28;20024;-62
2022/04/20 13:03:03;;;;;;;3.33;2.60;;;23.50;46.50;;;;;;5052921;28;20028;-62
2022/04/20 13:05:33;;;;;;;4.28;2.42;;;23.10;47.10;;;;;;5049267;28;20120;-63
2022/04/20 13:07:59;;;;;;;4.65;2.60;;;22.80;47.80;;;;;;5057188;28;20353;-63
2022/04/20 13:10:26;;;;;;;5.88;2.47;;;22.50;48.10;;;;;;5045519;28;20018;-63
2022/04/20 13:12:53;;;;;;;5.65;2.72;;;22.20;48.40;;;;;;5044868;28;20025;-64
2022/04/20 13:15:21;;;;;;;5.20;2.85;;;22.00;48.80;;;;;;5066531;28;20475;-62
2022/04/20 13:17:47;;;;;;;5.00;2.80;;;21.80;49.10;;;;;;5050383;28;20033;-63
2022/04/20 13:20:14;;;;;;;6.25;2.47;;;21.60;48.90;;;;;;5047057;28;20503;-63
2022/04/20 13:22:40;;;;;;;6.10;2.90;;;21.50;49.60;;;;;;5042951;28;20040;-62
2022/04/20 13:27:56;;;;;;;7.07;2.92;;;21.40;49.70;;;;;;5046671;28;21349;-63
2022/04/20 13:30:27;;;;;;;7.38;2.72;;;21.20;50.40;;;;;;5060801;28;20403;-62
2022/04/20 13:32:55;;;;;;;6.28;2.83;;;21.20;50.40;;;;;;5073666;28;20025;-62
2022/04/20 13:35:21;;;;;;;5.10;2.42;;;21.30;51.00;;;;;;5075358;28;20457;-63